sensor_id;sensor_type;location;lat;lon;timestamp;P1;durP1;ratioP1;P2;durP2;ratioP2
53688;SDS011;39583;54.682;30.662;2023-08-01T05:37:54;7.45;;;5.90;;
53688;SDS011;39583;54.682;30.662;2023-08-01T05:40:22;6.50;;;4.93;;
53688;SDS011;39583;54.682;30.662;2023-08-01T05:42:49;6.93;;;4.78;;
53688;SDS011;39583;54.682;30.662;2023-08-01T05:45:17;7.85;;;6.07;;
53688;SDS011;39583;54.682;30.662;2023-08-01T05:47:44;7.88;;;5.63;;
53688;SDS011;39583;54.682;30.662;2023-08-01T05:50:11;7.38;;;5.85;;
53688;SDS011;39583;54.682;30.662;2023-08-01T05:52:39;6.20;;;5.00;;
53688;SDS011;39583;54.682;30.662;2023-08-01T05:55:07;7.70;;;5.15;;
53688;SDS011;39583;54.682;30.662;2023-08-01T05:57:35;10.43;;;5.40;;
53688;SDS011;39583;54.682;30.662;2023-08-01T06:00:02;7.75;;;5.57;;
53688;SDS011;39583;54.682;30.662;2023-08-01T06:02:38;9.10;;;5.00;;
53688;SDS011;39583;54.682;30.662;2023-08-01T06:05:05;6.40;;;4.82;;
53688;SDS011;39583;54.682;30.662;2023-08-01T12:00:20;4.13;;;2.53;;
53688;SDS011;39583;54.682;30.662;2023-08-01T12:02:49;5.03;;;2.55;;
53688;SDS011;39583;54.682;30.662;2023-08-01T12:05:23;3.90;;;2.53;;
53688;SDS011;39583;54.682;30.662;2023-08-01T12:07:51;2.88;;;2.47;;
53688;SDS011;39583;54.682;30.662;2023-08-01T12:10:18;7.35;;;2.60;;
53688;SDS011;39583;54.682;30.662;2023-08-01T12:12:46;4.13;;;2.65;;
53688;SDS011;39583;54.682;30.662;2023-08-01T12:15:15;3.88;;;2.83;;
53688;SDS011;39583;54.682;30.662;2023-08-01T12:17:42;7.75;;;2.83;;
53688;SDS011;39583;54.682;30.662;2023-08-01T12:20:10;5.18;;;2.90;;
53688;SDS011;39583;54.682;30.662;2023-08-01T12:22:37;5.25;;;2.95;;
53688;SDS011;39583;54.682;30.662;2023-08-01T12:25:05;4.55;;;2.60;;
53688;SDS011;39583;54.682;30.662;2023-08-01T12:27:33;3.55;;;2.53;;
53688;SDS011;39583;54.682;30.662;2023-08-01T12:30:00;4.47;;;3.20;;
53688;SDS011;39583;54.682;30.662;2023-08-01T12:32:28;3.65;;;2.65;;
53688;SDS011;39583;54.682;30.662;2023-08-01T12:34:55;3.78;;;3.05;;
53688;SDS011;39583;54.682;30.662;2023-08-01T12:37:22;4.28;;;3.40;;
53688;SDS011;39583;54.682;30.662;2023-08-01T12:39:49;5.45;;;3.25;;
53688;SDS011;39583;54.682;30.662;2023-08-01T12:42:17;4.68;;;2.97;;
53688;SDS011;39583;54.682;30.662;2023-08-01T12:44:44;3.85;;;3.05;;
53688;SDS011;39583;54.682;30.662;2023-08-01T12:47:11;5.60;;;3.97;;
53688;SDS011;39583;54.682;30.662;2023-08-01T12:49:39;3.70;;;3.05;;
53688;SDS011;39583;54.682;30.662;2023-08-01T12:52:06;5.30;;;3.28;;
53688;SDS011;39583;54.682;30.662;2023-08-01T12:54:34;4.07;;;3.00;;
53688;SDS011;39583;54.682;30.662;2023-08-01T12:57:01;4.88;;;2.80;;
53688;SDS011;39583;54.682;30.662;2023-08-01T12:59:28;4.57;;;3.20;;
53688;SDS011;39583;54.682;30.662;2023-08-01T13:01:55;5.80;;;2.90;;
53688;SDS011;39583;54.682;30.662;2023-08-01T13:04:23;3.55;;;2.65;;
53688;SDS011;39583;54.682;30.662;2023-08-01T13:06:50;3.78;;;2.60;;
53688;SDS011;39583;54.682;30.662;2023-08-01T13:09:18;3.00;;;2.50;;
53688;SDS011;39583;54.682;30.662;2023-08-01T13:11:45;2.55;;;2.22;;
53688;SDS011;39583;54.682;30.662;2023-08-01T13:14:12;4.35;;;2.40;;
53688;SDS011;39583;54.682;30.662;2023-08-01T13:16:40;2.42;;;2.08;;
53688;SDS011;39583;54.682;30.662;2023-08-01T13:19:07;2.95;;;2.50;;
53688;SDS011;39583;54.682;30.662;2023-08-01T13:21:35;4.25;;;2.38;;
53688;SDS011;39583;54.682;30.662;2023-08-01T13:24:02;3.60;;;2.13;;
53688;SDS011;39583;54.682;30.662;2023-08-01T13:26:31;3.72;;;2.33;;
53688;SDS011;39583;54.682;30.662;2023-08-01T13:28:59;4.90;;;2.20;;
53688;SDS011;39583;54.682;30.662;2023-08-01T13:31:27;4.32;;;2.10;;
53688;SDS011;39583;54.682;30.662;2023-08-01T13:33:55;5.30;;;2.08;;
53688;SDS011;39583;54.682;30.662;2023-08-01T13:36:29;5.28;;;2.20;;
53688;SDS011;39583;54.682;30.662;2023-08-01T13:38:56;6.50;;;2.83;;
53688;SDS011;39583;54.682;30.662;2023-08-01T13:41:24;4.10;;;2.40;;
53688;SDS011;39583;54.682;30.662;2023-08-01T13:43:51;3.42;;;2.00;;
53688;SDS011;39583;54.682;30.662;2023-08-01T13:46:18;5.88;;;2.22;;
53688;SDS011;39583;54.682;30.662;2023-08-01T13:48:51;5.53;;;2.90;;
53688;SDS011;39583;54.682;30.662;2023-08-01T13:51:19;3.42;;;2.30;;
53688;SDS011;39583;54.682;30.662;2023-08-01T13:53:47;5.45;;;2.28;;
53688;SDS011;39583;54.682;30.662;2023-08-01T13:56:14;2.50;;;1.92;;
53688;SDS011;39583;54.682;30.662;2023-08-01T13:58:41;2.85;;;2.03;;
53688;SDS011;39583;54.682;30.662;2023-08-01T14:01:09;2.38;;;1.80;;
53688;SDS011;39583;54.682;30.662;2023-08-01T14:03:37;2.67;;;2.00;;
53688;SDS011;39583;54.682;30.662;2023-08-01T14:06:06;4.78;;;2.22;;
53688;SDS011;39583;54.682;30.662;2023-08-01T14:08:35;6.05;;;1.95;;
53688;SDS011;39583;54.682;30.662;2023-08-01T14:11:03;3.72;;;2.13;;
53688;SDS011;39583;54.682;30.662;2023-08-01T14:13:32;3.38;;;1.80;;
53688;SDS011;39583;54.682;30.662;2023-08-01T14:16:00;5.05;;;2.50;;
53688;SDS011;39583;54.682;30.662;2023-08-01T14:18:31;7.87;;;2.50;;
53688;SDS011;39583;54.682;30.662;2023-08-01T14:20:58;2.78;;;1.98;;
53688;SDS011;39583;54.682;30.662;2023-08-01T14:23:26;3.40;;;1.95;;
53688;SDS011;39583;54.682;30.662;2023-08-01T14:25:54;2.83;;;2.30;;
53688;SDS011;39583;54.682;30.662;2023-08-01T14:28:21;2.58;;;2.08;;
53688;SDS011;39583;54.682;30.662;2023-08-01T14:30:49;2.63;;;2.25;;
53688;SDS011;39583;54.682;30.662;2023-08-01T14:33:16;3.13;;;2.13;;
53688;SDS011;39583;54.682;30.662;2023-08-01T14:35:44;3.78;;;1.95;;
53688;SDS011;39583;54.682;30.662;2023-08-01T14:38:11;5.55;;;2.10;;
53688;SDS011;39583;54.682;30.662;2023-08-01T14:40:38;7.25;;;2.20;;
53688;SDS011;39583;54.682;30.662;2023-08-01T14:43:11;3.45;;;2.10;;
53688;SDS011;39583;54.682;30.662;2023-08-01T14:45:41;3.40;;;2.10;;
53688;SDS011;39583;54.682;30.662;2023-08-01T14:48:09;4.60;;;2.05;;
53688;SDS011;39583;54.682;30.662;2023-08-01T14:50:37;2.78;;;2.20;;
53688;SDS011;39583;54.682;30.662;2023-08-01T14:53:04;3.10;;;2.38;;
53688;SDS011;39583;54.682;30.662;2023-08-01T14:55:33;3.63;;;2.53;;
53688;SDS011;39583;54.682;30.662;2023-08-01T14:58:01;2.50;;;1.98;;
53688;SDS011;39583;54.682;30.662;2023-08-01T15:00:28;5.25;;;2.15;;
53688;SDS011;39583;54.682;30.662;2023-08-01T15:02:56;5.10;;;2.10;;
53688;SDS011;39583;54.682;30.662;2023-08-01T15:05:24;3.40;;;1.90;;
53688;SDS011;39583;54.682;30.662;2023-08-01T15:07:51;4.10;;;1.58;;
53688;SDS011;39583;54.682;30.662;2023-08-01T15:10:19;4.07;;;2.00;;
53688;SDS011;39583;54.682;30.662;2023-08-01T15:12:46;3.58;;;2.25;;
53688;SDS011;39583;54.682;30.662;2023-08-01T15:15:13;3.40;;;2.10;;
53688;SDS011;39583;54.682;30.662;2023-08-01T15:17:41;3.47;;;2.20;;
53688;SDS011;39583;54.682;30.662;2023-08-01T15:20:09;3.28;;;2.15;;
53688;SDS011;39583;54.682;30.662;2023-08-01T15:22:36;3.47;;;2.40;;
53688;SDS011;39583;54.682;30.662;2023-08-01T15:25:04;6.22;;;2.22;;
53688;SDS011;39583;54.682;30.662;2023-08-01T15:27:32;2.45;;;2.00;;
53688;SDS011;39583;54.682;30.662;2023-08-01T15:29:59;3.80;;;2.10;;
53688;SDS011;39583;54.682;30.662;2023-08-01T15:32:26;6.13;;;2.00;;
53688;SDS011;39583;54.682;30.662;2023-08-01T15:34:54;3.05;;;1.90;;
53688;SDS011;39583;54.682;30.662;2023-08-01T15:37:22;5.35;;;2.33;;
53688;SDS011;39583;54.682;30.662;2023-08-01T15:39:49;3.92;;;2.30;;
53688;SDS011;39583;54.682;30.662;2023-08-01T15:42:17;3.67;;;2.10;;
53688;SDS011;39583;54.682;30.662;2023-08-01T15:44:44;2.53;;;2.10;;
53688;SDS011;39583;54.682;30.662;2023-08-01T15:47:11;4.30;;;2.30;;
53688;SDS011;39583;54.682;30.662;2023-08-01T15:49:39;3.97;;;2.15;;
53688;SDS011;39583;54.682;30.662;2023-08-01T15:52:09;5.72;;;2.53;;
53688;SDS011;39583;54.682;30.662;2023-08-01T15:54:36;2.67;;;1.92;;
53688;SDS011;39583;54.682;30.662;2023-08-01T15:57:04;6.65;;;2.13;;
53688;SDS011;39583;54.682;30.662;2023-08-01T15:59:31;2.80;;;2.28;;
53688;SDS011;39583;54.682;30.662;2023-08-01T16:01:58;2.67;;;2.20;;
53688;SDS011;39583;54.682;30.662;2023-08-01T16:04:26;3.47;;;2.08;;
53688;SDS011;39583;54.682;30.662;2023-08-01T16:06:53;5.53;;;2.40;;
53688;SDS011;39583;54.682;30.662;2023-08-01T16:09:21;8.90;;;2.40;;
53688;SDS011;39583;54.682;30.662;2023-08-01T16:11:48;2.97;;;2.25;;
53688;SDS011;39583;54.682;30.662;2023-08-01T16:14:15;2.72;;;1.98;;
53688;SDS011;39583;54.682;30.662;2023-08-01T16:17:03;2.60;;;2.10;;
53688;SDS011;39583;54.682;30.662;2023-08-01T16:19:30;3.38;;;2.30;;
53688;SDS011;39583;54.682;30.662;2023-08-01T16:21:58;5.05;;;1.90;;
53688;SDS011;39583;54.682;30.662;2023-08-01T16:24:25;5.07;;;1.90;;
53688;SDS011;39583;54.682;30.662;2023-08-01T16:26:52;2.78;;;2.00;;
53688;SDS011;39583;54.682;30.662;2023-08-01T16:29:20;2.83;;;1.98;;
53688;SDS011;39583;54.682;30.662;2023-08-01T16:31:47;3.83;;;1.90;;
53688;SDS011;39583;54.682;30.662;2023-08-01T16:34:14;12.55;;;2.20;;
53688;SDS011;39583;54.682;30.662;2023-08-01T16:36:42;2.90;;;2.15;;
53688;SDS011;39583;54.682;30.662;2023-08-01T16:39:10;2.75;;;2.10;;
53688;SDS011;39583;54.682;30.662;2023-08-01T16:41:37;2.58;;;2.10;;
53688;SDS011;39583;54.682;30.662;2023-08-01T16:44:04;3.00;;;1.83;;
53688;SDS011;39583;54.682;30.662;2023-08-01T16:46:32;4.20;;;2.10;;
53688;SDS011;39583;54.682;30.662;2023-08-01T16:48:59;2.88;;;2.00;;
53688;SDS011;39583;54.682;30.662;2023-08-01T16:51:47;5.40;;;2.45;;
53688;SDS011;39583;54.682;30.662;2023-08-01T16:54:14;7.05;;;2.20;;
53688;SDS011;39583;54.682;30.662;2023-08-01T16:56:42;4.45;;;2.38;;
53688;SDS011;39583;54.682;30.662;2023-08-01T16:59:09;4.35;;;2.30;;
53688;SDS011;39583;54.682;30.662;2023-08-01T17:01:37;4.07;;;2.28;;
53688;SDS011;39583;54.682;30.662;2023-08-01T17:04:05;5.47;;;2.33;;
53688;SDS011;39583;54.682;30.662;2023-08-01T17:06:34;3.00;;;2.38;;
53688;SDS011;39583;54.682;30.662;2023-08-01T17:09:02;3.15;;;2.00;;
53688;SDS011;39583;54.682;30.662;2023-08-01T17:11:29;3.20;;;2.20;;
53688;SDS011;39583;54.682;30.662;2023-08-01T17:13:56;3.25;;;2.50;;
53688;SDS011;39583;54.682;30.662;2023-08-01T17:16:24;5.30;;;2.28;;
53688;SDS011;39583;54.682;30.662;2023-08-01T17:18:52;4.32;;;2.50;;
53688;SDS011;39583;54.682;30.662;2023-08-01T17:21:20;6.25;;;2.53;;
53688;SDS011;39583;54.682;30.662;2023-08-01T17:23:47;4.13;;;2.63;;
53688;SDS011;39583;54.682;30.662;2023-08-01T17:26:14;6.68;;;2.60;;
53688;SDS011;39583;54.682;30.662;2023-08-01T17:28:42;4.05;;;2.15;;
53688;SDS011;39583;54.682;30.662;2023-08-01T17:31:09;5.40;;;2.45;;
53688;SDS011;39583;54.682;30.662;2023-08-01T17:33:40;3.33;;;2.63;;
53688;SDS011;39583;54.682;30.662;2023-08-01T17:36:07;4.63;;;2.25;;
53688;SDS011;39583;54.682;30.662;2023-08-01T17:38:35;4.40;;;2.88;;
53688;SDS011;39583;54.682;30.662;2023-08-01T17:43:48;4.70;;;2.42;;
53688;SDS011;39583;54.682;30.662;2023-08-01T17:46:15;6.72;;;2.75;;
53688;SDS011;39583;54.682;30.662;2023-08-01T17:48:43;4.85;;;2.40;;
53688;SDS011;39583;54.682;30.662;2023-08-01T17:51:11;2.72;;;2.33;;
53688;SDS011;39583;54.682;30.662;2023-08-01T17:53:38;6.57;;;2.17;;
53688;SDS011;39583;54.682;30.662;2023-08-01T17:56:06;3.63;;;2.58;;
53688;SDS011;39583;54.682;30.662;2023-08-01T17:58:33;6.45;;;2.70;;
53688;SDS011;39583;54.682;30.662;2023-08-01T18:01:02;5.53;;;2.53;;
53688;SDS011;39583;54.682;30.662;2023-08-01T18:03:33;4.07;;;2.38;;
53688;SDS011;39583;54.682;30.662;2023-08-01T18:06:05;3.60;;;2.40;;
53688;SDS011;39583;54.682;30.662;2023-08-01T18:08:36;8.27;;;2.80;;
53688;SDS011;39583;54.682;30.662;2023-08-01T18:11:13;4.65;;;2.83;;
53688;SDS011;39583;54.682;30.662;2023-08-01T18:13:43;4.95;;;2.80;;
53688;SDS011;39583;54.682;30.662;2023-08-01T18:16:19;6.38;;;2.83;;
53688;SDS011;39583;54.682;30.662;2023-08-01T18:18:47;5.40;;;2.58;;
53688;SDS011;39583;54.682;30.662;2023-08-01T18:21:15;5.07;;;2.55;;
53688;SDS011;39583;54.682;30.662;2023-08-01T18:23:43;3.33;;;2.60;;
53688;SDS011;39583;54.682;30.662;2023-08-01T18:26:17;7.90;;;2.40;;
53688;SDS011;39583;54.682;30.662;2023-08-01T18:28:47;3.47;;;2.63;;
53688;SDS011;39583;54.682;30.662;2023-08-01T18:31:15;4.50;;;2.50;;
53688;SDS011;39583;54.682;30.662;2023-08-01T18:33:43;4.13;;;2.60;;
53688;SDS011;39583;54.682;30.662;2023-08-01T18:36:15;6.50;;;2.78;;
53688;SDS011;39583;54.682;30.662;2023-08-01T18:38:44;3.03;;;2.38;;
53688;SDS011;39583;54.682;30.662;2023-08-01T18:41:12;3.28;;;2.53;;
53688;SDS011;39583;54.682;30.662;2023-08-01T18:43:39;4.13;;;2.22;;
53688;SDS011;39583;54.682;30.662;2023-08-01T18:46:07;4.70;;;2.40;;
53688;SDS011;39583;54.682;30.662;2023-08-01T18:48:35;4.03;;;2.47;;
53688;SDS011;39583;54.682;30.662;2023-08-01T18:51:12;4.72;;;2.38;;
53688;SDS011;39583;54.682;30.662;2023-08-01T18:53:41;4.35;;;2.58;;
53688;SDS011;39583;54.682;30.662;2023-08-01T18:56:09;3.97;;;2.55;;
53688;SDS011;39583;54.682;30.662;2023-08-01T18:58:40;5.03;;;2.50;;
53688;SDS011;39583;54.682;30.662;2023-08-01T19:01:19;3.85;;;2.95;;
53688;SDS011;39583;54.682;30.662;2023-08-01T19:03:51;6.32;;;2.65;;
53688;SDS011;39583;54.682;30.662;2023-08-01T19:06:21;4.90;;;2.58;;
